createdAt,value
2023-03-27T00:01:17.791Z,3.53
2023-03-27T00:03:44.812Z,3.55
2023-03-27T00:06:16.780Z,3.58
2023-03-27T00:08:51.107Z,3.57
2023-03-27T00:11:18.622Z,3.56
2023-03-27T00:13:50.309Z,3.57
2023-03-27T00:16:22.701Z,3.56
2023-03-27T00:18:49.667Z,3.58
2023-03-27T00:21:16.934Z,3.58
2023-03-27T00:23:43.375Z,3.57
2023-03-27T00:26:11.871Z,3.55
2023-03-27T00:28:38.446Z,3.55
2023-03-27T00:31:10.827Z,3.54
2023-03-27T00:33:37.634Z,3.53
2023-03-27T00:36:04.261Z,3.53
2023-03-27T00:38:31.394Z,3.53
2023-03-27T00:40:58.270Z,3.54
2023-03-27T00:43:33.745Z,3.53
2023-03-27T00:46:08.590Z,3.56
2023-03-27T00:48:37.674Z,3.57
2023-03-27T00:51:05.982Z,3.57
2023-03-27T00:53:33.604Z,3.55
2023-03-27T00:56:04.434Z,3.55
2023-03-27T00:58:39.541Z,3.53
2023-03-27T01:01:08.950Z,3.53
2023-03-27T01:03:35.585Z,3.52
2023-03-27T01:06:04.050Z,3.49
2023-03-27T01:08:33.591Z,3.44
2023-03-27T01:10:59.999Z,3.38
2023-03-27T01:13:55.923Z,3.34
2023-03-27T01:16:27.582Z,3.31
2023-03-27T01:19:11.787Z,3.32
2023-03-27T01:22:17.970Z,3.35
2023-03-27T01:25:18.739Z,3.37
2023-03-27T01:28:03.890Z,3.38
2023-03-27T01:30:42.238Z,3.40
2023-03-27T01:33:26.915Z,3.41
2023-03-27T01:36:04.217Z,3.38
2023-03-27T01:38:34.195Z,3.36
2023-03-27T01:41:13.294Z,3.36
2023-03-27T01:43:51.238Z,3.35
2023-03-27T01:46:25.967Z,3.34
2023-03-27T01:49:02.470Z,3.31
2023-03-27T01:51:39.623Z,3.28
2023-03-27T01:54:15.367Z,3.27
2023-03-27T01:56:53.916Z,3.22
2023-03-27T01:59:27.004Z,3.22
2023-03-27T02:02:03.226Z,3.24
2023-03-27T02:04:50.234Z,3.27
2023-03-27T02:07:24.028Z,3.25
2023-03-27T02:09:54.645Z,3.18
2023-03-27T02:12:30.872Z,3.14
2023-03-27T02:15:23.697Z,3.08
2023-03-27T02:17:56.842Z,2.98
2023-03-27T02:20:24.241Z,2.91
2023-03-27T02:22:50.873Z,2.84
2023-03-27T02:25:26.374Z,2.76
2023-03-27T02:28:17.465Z,2.67
2023-03-27T02:31:05.325Z,2.60
2023-03-27T02:33:42.292Z,2.54
2023-03-27T02:36:55.548Z,2.50
2023-03-27T02:39:37.938Z,2.43
2023-03-27T02:42:54.098Z,2.40
2023-03-27T02:45:51.579Z,2.32
2023-03-27T02:48:27.110Z,2.28
2023-03-27T02:50:59.633Z,2.23
2023-03-27T02:53:28.614Z,2.16
2023-03-27T02:55:58.914Z,2.10
2023-03-27T02:58:45.132Z,2.09
2023-03-27T03:01:16.599Z,2.10
2023-03-27T03:03:53.676Z,2.10
2023-03-27T03:06:22.073Z,2.14
2023-03-27T03:08:49.202Z,2.17
2023-03-27T03:11:15.817Z,2.22
2023-03-27T03:13:42.353Z,2.27
2023-03-27T03:16:09.982Z,2.30
2023-03-27T03:18:36.889Z,2.29
2023-03-27T03:21:04.642Z,2.26
2023-03-27T03:23:31.923Z,2.23
2023-03-27T03:25:58.371Z,2.17
2023-03-27T03:28:27.362Z,2.11
2023-03-27T03:30:54.435Z,2.03
2023-03-27T03:33:21.733Z,1.97
2023-03-27T03:35:50.293Z,1.92
2023-03-27T03:38:27.162Z,1.88
2023-03-27T03:40:59.097Z,1.82
2023-03-27T03:43:27.923Z,1.79
2023-03-27T03:45:55.390Z,1.73
2023-03-27T03:48:23.185Z,1.70
2023-03-27T03:50:50.000Z,1.68
2023-03-27T03:53:19.499Z,1.64
2023-03-27T03:55:48.956Z,1.61
2023-03-27T03:58:15.565Z,1.55
2023-03-27T04:00:43.388Z,1.50
2023-03-27T04:03:10.676Z,1.49
2023-03-27T04:05:38.385Z,1.47
2023-03-27T04:08:09.462Z,1.45
2023-03-27T04:10:38.912Z,1.45
2023-03-27T04:13:06.482Z,1.43
2023-03-27T04:15:33.718Z,1.40
2023-03-27T04:18:00.445Z,1.38
2023-03-27T04:20:27.172Z,1.38
2023-03-27T04:22:54.351Z,1.37
2023-03-27T04:25:24.613Z,1.38
2023-03-27T04:27:51.834Z,1.38
2023-03-27T04:30:23.196Z,1.41
2023-03-27T04:32:51.361Z,1.41
2023-03-27T04:35:19.985Z,1.36
2023-03-27T04:37:47.764Z,1.33
2023-03-27T04:40:18.134Z,1.28
2023-03-27T04:42:45.349Z,1.26
2023-03-27T04:45:15.123Z,1.18
2023-03-27T04:47:42.616Z,1.17
2023-03-27T04:50:11.026Z,1.17
2023-03-27T04:52:37.504Z,1.15
2023-03-27T04:55:05.068Z,1.18
2023-03-27T04:57:32.887Z,1.23
2023-03-27T05:00:00.854Z,1.27
2023-03-27T05:02:27.997Z,1.27
2023-03-27T05:05:02.139Z,1.29
2023-03-27T05:07:28.669Z,1.30
2023-03-27T05:09:57.198Z,1.28
2023-03-27T05:12:23.588Z,1.27
2023-03-27T05:14:50.054Z,1.26
2023-03-27T05:17:16.959Z,1.26
2023-03-27T05:19:43.515Z,1.25
2023-03-27T05:22:09.951Z,1.22
2023-03-27T05:24:36.370Z,1.24
2023-03-27T05:27:02.874Z,1.24
2023-03-27T05:29:30.202Z,1.22
2023-03-27T05:32:14.098Z,1.20
2023-03-27T05:34:40.559Z,1.19
2023-03-27T05:37:07.183Z,1.19
2023-03-27T05:39:33.671Z,1.15
2023-03-27T05:42:00.149Z,1.14
2023-03-27T05:44:27.403Z,1.13
2023-03-27T05:46:54.091Z,1.12
2023-03-27T05:49:20.527Z,1.13
2023-03-27T05:51:47.463Z,1.14
2023-03-27T05:54:14.043Z,1.17
2023-03-27T05:56:40.526Z,1.18
2023-03-27T05:59:07.140Z,1.18
2023-03-27T06:01:36.048Z,1.20
2023-03-27T06:04:04.427Z,1.30
2023-03-27T06:06:32.805Z,1.70
2023-03-27T06:08:59.499Z,2.30
2023-03-27T06:11:26.058Z,2.56
2023-03-27T06:13:52.459Z,2.31
2023-03-27T06:16:20.895Z,2.12
2023-03-27T06:18:48.438Z,2.00
2023-03-27T06:21:15.255Z,1.93
2023-03-27T06:23:42.458Z,1.90
2023-03-27T06:26:08.808Z,1.95
2023-03-27T06:28:35.289Z,1.99
2023-03-27T06:31:01.825Z,2.03
2023-03-27T06:33:29.566Z,2.08
2023-03-27T06:36:00.851Z,2.13
2023-03-27T06:38:31.528Z,2.22
2023-03-27T06:40:59.815Z,2.34
2023-03-27T06:43:26.481Z,2.54
2023-03-27T06:45:53.193Z,2.68
2023-03-27T06:48:22.288Z,2.81
2023-03-27T06:50:51.094Z,2.88
2023-03-27T06:53:27.104Z,2.99
2023-03-27T06:55:55.591Z,3.14
2023-03-27T06:58:22.437Z,3.21
2023-03-27T07:00:50.286Z,3.29
2023-03-27T07:03:17.915Z,3.36
2023-03-27T07:05:44.924Z,3.42
2023-03-27T07:08:23.233Z,3.50
2023-03-27T07:10:59.824Z,3.56
2023-03-27T07:13:37.222Z,3.67
2023-03-27T07:16:04.414Z,3.78
2023-03-27T07:18:31.021Z,3.87
2023-03-27T07:20:57.722Z,4.01
2023-03-27T07:23:24.331Z,4.11
2023-03-27T07:25:52.128Z,4.25
2023-03-27T07:28:19.394Z,4.33
2023-03-27T07:30:46.146Z,4.44
2023-03-27T07:33:13.034Z,4.57
2023-03-27T07:35:44.152Z,4.72
2023-03-27T07:38:10.810Z,4.65
2023-03-27T07:40:40.479Z,4.66
2023-03-27T07:43:07.560Z,4.81
2023-03-27T07:45:35.369Z,4.98
2023-03-27T07:48:10.809Z,5.15
2023-03-27T07:50:37.957Z,5.22
2023-03-27T07:53:06.201Z,5.40
2023-03-27T07:55:32.960Z,5.50
2023-03-27T07:58:02.946Z,5.60
2023-03-27T08:00:31.356Z,5.65
2023-03-27T08:03:09.540Z,5.75
2023-03-27T08:05:37.006Z,5.87
2023-03-27T08:08:04.875Z,5.79
2023-03-27T08:10:31.394Z,5.93
2023-03-27T08:12:57.824Z,6.12
2023-03-27T08:15:25.338Z,6.32
2023-03-27T08:17:54.629Z,6.44
2023-03-27T08:20:23.656Z,6.50
2023-03-27T08:22:52.504Z,6.36
2023-03-27T08:25:19.542Z,6.36
2023-03-27T08:27:46.584Z,6.47
2023-03-27T08:30:16.688Z,6.57
2023-03-27T08:32:43.901Z,6.62
2023-03-27T08:35:10.966Z,6.69
2023-03-27T08:37:37.674Z,6.80
2023-03-27T08:40:09.057Z,6.77
2023-03-27T08:42:39.706Z,6.84
2023-03-27T08:45:19.178Z,6.94
2023-03-27T08:48:09.946Z,7.20
2023-03-27T08:50:51.997Z,7.55
2023-03-27T08:53:38.323Z,8.16
2023-03-27T08:56:05.316Z,8.44
2023-03-27T08:58:33.564Z,7.61
2023-03-27T09:01:18.612Z,7.34
2023-03-27T09:04:00.704Z,7.03
2023-03-27T09:06:39.524Z,7.03
2023-03-27T09:09:21.913Z,7.34
2023-03-27T09:12:10.885Z,7.68
2023-03-27T09:14:43.131Z,7.92
2023-03-27T09:17:18.354Z,8.41
2023-03-27T09:19:53.897Z,8.38
2023-03-27T09:22:28.463Z,8.55
2023-03-27T09:25:02.474Z,8.29
2023-03-27T09:27:33.793Z,7.14
2023-03-27T09:30:19.336Z,6.18
2023-03-27T09:32:51.681Z,5.43
2023-03-27T09:35:20.495Z,5.06
2023-03-27T09:37:54.028Z,4.67
2023-03-27T09:40:33.639Z,4.47
2023-03-27T09:43:16.290Z,4.27
2023-03-27T09:45:45.049Z,4.27
2023-03-27T09:48:28.319Z,4.35
2023-03-27T09:50:54.971Z,4.49
2023-03-27T09:53:23.428Z,4.62
2023-03-27T09:55:55.635Z,5.21
2023-03-27T09:58:30.609Z,5.87
2023-03-27T10:01:14.292Z,6.46
2023-03-27T10:03:49.567Z,6.73
2023-03-27T10:06:26.094Z,7.03
2023-03-27T10:08:52.818Z,6.92
2023-03-27T10:11:25.951Z,7.00
2023-03-27T10:13:52.935Z,7.23
2023-03-27T10:16:21.483Z,7.47
2023-03-27T10:18:52.286Z,7.51
2023-03-27T10:21:26.585Z,7.71
2023-03-27T10:24:00.840Z,7.98
2023-03-27T10:26:30.557Z,8.18
2023-03-27T10:29:01.758Z,8.22
2023-03-27T10:31:30.593Z,8.42
2023-03-27T10:34:00.711Z,8.68
2023-03-27T10:36:27.692Z,8.80
2023-03-27T10:39:02.275Z,8.98
2023-03-27T10:41:29.398Z,8.79
2023-03-27T10:43:57.393Z,8.53
2023-03-27T10:46:27.002Z,8.24
2023-03-27T10:49:02.650Z,7.88
2023-03-27T10:51:46.586Z,7.45
2023-03-27T10:54:25.193Z,7.19
2023-03-27T10:57:00.594Z,7.74
2023-03-27T10:59:41.623Z,8.56
2023-03-27T11:02:28.847Z,8.92
2023-03-27T11:05:02.670Z,9.14
2023-03-27T11:07:37.665Z,9.45
2023-03-27T11:10:14.671Z,9.62
2023-03-27T11:12:48.176Z,8.82
2023-03-27T11:15:23.497Z,8.85
2023-03-27T11:18:17.565Z,9.24
2023-03-27T11:20:50.620Z,9.70
2023-03-27T11:23:28.613Z,9.77
2023-03-27T11:25:59.755Z,9.58
2023-03-27T11:28:53.621Z,9.49
2023-03-27T11:31:29.203Z,9.23
2023-03-27T11:34:06.181Z,8.60
2023-03-27T11:36:57.875Z,7.46
2023-03-27T11:39:48.399Z,6.58
2023-03-27T11:42:17.696Z,6.10
2023-03-27T11:44:44.931Z,6.06
2023-03-27T11:47:42.596Z,6.14
2023-03-27T11:50:31.104Z,6.50
2023-03-27T11:53:12.219Z,7.36
2023-03-27T11:56:10.988Z,8.13
2023-03-27T11:58:46.142Z,8.74
2023-03-27T12:01:21.705Z,9.16
2023-03-27T12:03:57.684Z,9.03
2023-03-27T12:07:04.604Z,9.17
2023-03-27T12:09:52.503Z,9.46
2023-03-27T12:12:43.780Z,9.79
2023-03-27T12:15:22.790Z,9.97
2023-03-27T12:17:55.215Z,10.23
2023-03-27T12:20:24.596Z,10.52
2023-03-27T12:22:58.722Z,9.48
2023-03-27T12:25:58.668Z,8.64
2023-03-27T12:28:30.665Z,8.00
2023-03-27T12:31:03.975Z,8.19
2023-03-27T12:33:48.403Z,8.13
2023-03-27T12:36:19.478Z,7.94
2023-03-27T12:38:46.832Z,7.90
2023-03-27T12:41:43.237Z,7.54
2023-03-27T12:44:13.315Z,7.45
2023-03-27T12:46:41.968Z,7.54
2023-03-27T12:49:10.733Z,7.70
2023-03-27T12:51:57.920Z,7.61
2023-03-27T12:54:27.371Z,8.15
2023-03-27T12:57:18.036Z,9.18
2023-03-27T12:59:57.785Z,8.83
2023-03-27T13:03:02.786Z,9.17
2023-03-27T13:05:35.193Z,9.49
2023-03-27T13:08:08.092Z,9.56
2023-03-27T13:11:19.310Z,9.76
2023-03-27T13:14:04.692Z,9.87
2023-03-27T13:16:55.701Z,10.03
2023-03-27T13:19:32.674Z,10.33
2023-03-27T13:22:14.112Z,10.75
2023-03-27T13:25:02.338Z,10.97
2023-03-27T13:27:53.223Z,11.22
2023-03-27T13:30:45.432Z,10.13
2023-03-27T13:33:31.741Z,9.43
2023-03-27T13:35:58.471Z,9.86
2023-03-27T13:38:52.728Z,9.90
2023-03-27T13:41:54.123Z,8.97
2023-03-27T13:44:33.988Z,8.63
2023-03-27T13:47:26.336Z,8.44
2023-03-27T13:50:30.918Z,8.43
2023-03-27T13:53:20.422Z,8.24
2023-03-27T13:56:27.326Z,8.71
2023-03-27T13:59:12.931Z,9.38
2023-03-27T14:01:52.786Z,9.95
2023-03-27T14:04:34.439Z,9.97
2023-03-27T14:07:13.096Z,9.88
2023-03-27T14:10:16.769Z,10.28
2023-03-27T14:12:46.038Z,10.46
2023-03-27T14:15:26.695Z,10.70
2023-03-27T14:18:45.222Z,10.91
2023-03-27T14:21:27.553Z,11.30
2023-03-27T14:24:32.382Z,11.12
2023-03-27T14:27:01.100Z,11.14
2023-03-27T14:29:28.906Z,11.21
2023-03-27T14:32:12.147Z,11.17
2023-03-27T14:37:35.970Z,10.78
2023-03-27T14:40:18.948Z,9.72
2023-03-27T14:42:46.889Z,9.89
2023-03-27T14:45:23.598Z,10.50
2023-03-27T14:47:54.612Z,10.82
2023-03-27T14:50:21.534Z,10.97
2023-03-27T14:52:52.793Z,10.97
2023-03-27T14:55:19.569Z,11.06
2023-03-27T14:57:49.664Z,11.17
2023-03-27T15:00:23.467Z,11.04
2023-03-27T15:02:53.138Z,10.31
2023-03-27T15:05:24.204Z,9.85
2023-03-27T15:07:51.695Z,9.55
2023-03-27T15:10:24.332Z,9.87
2023-03-27T15:12:51.245Z,10.10
2023-03-27T15:15:38.500Z,10.27
2023-03-27T15:18:14.969Z,10.39
2023-03-27T15:20:42.293Z,9.89
2023-03-27T15:23:20.229Z,9.88
2023-03-27T15:25:56.159Z,10.05
2023-03-27T15:28:30.521Z,10.02
2023-03-27T15:31:01.350Z,9.89
2023-03-27T15:33:37.360Z,9.58
2023-03-27T15:36:22.432Z,9.73
2023-03-27T15:38:51.015Z,9.19
2023-03-27T15:41:17.742Z,8.87
2023-03-27T15:43:44.529Z,8.85
2023-03-27T15:46:17.563Z,8.85
2023-03-27T15:48:47.328Z,8.76
2023-03-27T15:51:27.626Z,8.57
2023-03-27T15:53:57.885Z,8.37
2023-03-27T15:56:43.896Z,8.36
2023-03-27T15:59:14.013Z,8.42
2023-03-27T16:01:47.579Z,8.57
2023-03-27T16:04:19.939Z,8.52
2023-03-27T16:06:51.131Z,8.45
2023-03-27T16:09:25.742Z,8.58
2023-03-27T16:11:54.269Z,8.50
2023-03-27T16:14:26.620Z,8.24
2023-03-27T16:17:25.121Z,8.03
2023-03-27T16:19:57.768Z,7.83
2023-03-27T16:22:29.519Z,7.70
2023-03-27T16:24:56.612Z,7.61
2023-03-27T16:27:26.619Z,7.57
2023-03-27T16:29:53.615Z,7.67
2023-03-27T16:32:22.025Z,7.57
2023-03-27T16:34:51.426Z,7.53
2023-03-27T16:37:25.131Z,7.42
2023-03-27T16:39:52.686Z,7.42
2023-03-27T16:42:25.684Z,7.42
2023-03-27T16:44:53.033Z,7.36
2023-03-27T16:47:20.522Z,7.48
2023-03-27T16:49:56.288Z,7.48
2023-03-27T16:52:33.914Z,7.37
2023-03-27T16:55:00.403Z,7.14
2023-03-27T16:57:26.864Z,7.00
2023-03-27T16:59:53.499Z,6.92
2023-03-27T17:02:19.893Z,6.92
2023-03-27T17:04:46.551Z,6.79
2023-03-27T17:07:12.925Z,6.55
2023-03-27T17:09:39.256Z,6.38
2023-03-27T17:12:06.013Z,6.36
2023-03-27T17:14:32.462Z,6.25
2023-03-27T17:16:58.989Z,6.21
2023-03-27T17:19:25.433Z,6.15
2023-03-27T17:21:51.832Z,6.03
2023-03-27T17:24:19.816Z,6.00
2023-03-27T17:26:46.430Z,5.95
2023-03-27T17:29:13.032Z,5.96
2023-03-27T17:31:39.514Z,6.00
2023-03-27T17:34:06.680Z,6.00
2023-03-27T17:36:40.208Z,6.00
2023-03-27T17:39:09.686Z,6.03
2023-03-27T17:41:36.194Z,5.95
2023-03-27T17:44:02.620Z,5.91
2023-03-27T17:46:29.085Z,5.84
2023-03-27T17:48:57.109Z,5.77
2023-03-27T17:51:23.760Z,5.67
2023-03-27T17:53:50.524Z,5.61
2023-03-27T17:56:16.886Z,5.56
2023-03-27T17:58:43.894Z,5.50
2023-03-27T18:01:19.045Z,5.44
2023-03-27T18:03:46.652Z,5.42
2023-03-27T18:06:14.686Z,5.39
2023-03-27T18:08:41.434Z,5.35
2023-03-27T18:11:10.396Z,5.28
2023-03-27T18:13:38.365Z,5.24
2023-03-27T18:16:08.604Z,5.20
2023-03-27T18:18:35.420Z,5.12
2023-03-27T18:21:02.314Z,5.06
2023-03-27T18:23:28.818Z,5.01
2023-03-27T18:25:55.526Z,4.95
2023-03-27T18:28:22.435Z,4.84
2023-03-27T18:30:58.502Z,4.78
2023-03-27T18:33:25.097Z,4.73
2023-03-27T18:35:56.135Z,4.65
2023-03-27T18:38:24.551Z,4.63
2023-03-27T18:40:51.343Z,4.58
2023-03-27T18:43:18.313Z,4.54
2023-03-27T18:45:45.217Z,4.47
2023-03-27T18:48:11.725Z,4.40
2023-03-27T18:50:38.110Z,4.35
2023-03-27T18:53:05.087Z,4.33
2023-03-27T18:55:32.349Z,4.29
2023-03-27T18:57:58.817Z,4.24
2023-03-27T19:00:25.233Z,4.18
2023-03-27T19:02:51.752Z,4.14
2023-03-27T19:05:18.493Z,4.12
2023-03-27T19:07:45.355Z,4.06
2023-03-27T19:10:12.798Z,4.01
2023-03-27T19:12:39.331Z,3.97
2023-03-27T19:15:18.973Z,3.93
2023-03-27T19:17:46.724Z,3.87
2023-03-27T19:20:13.698Z,3.82
2023-03-27T19:22:40.155Z,3.78
2023-03-27T19:25:07.201Z,3.76
2023-03-27T19:27:39.011Z,3.73
2023-03-27T19:30:07.688Z,3.67
2023-03-27T19:32:34.279Z,3.59
2023-03-27T19:35:00.794Z,3.55
2023-03-27T19:37:27.329Z,3.50
2023-03-27T19:39:53.792Z,3.44
2023-03-27T19:42:20.212Z,3.41
2023-03-27T19:44:46.658Z,3.41
2023-03-27T19:47:13.108Z,3.34
2023-03-27T19:49:39.993Z,3.33
2023-03-27T19:52:07.230Z,3.28
2023-03-27T19:54:33.645Z,3.29
2023-03-27T19:57:00.332Z,3.27
2023-03-27T19:59:30.788Z,3.22
2023-03-27T20:01:58.487Z,3.20
2023-03-27T20:04:25.362Z,3.13
2023-03-27T20:06:51.823Z,3.10
2023-03-27T20:09:18.925Z,3.08
2023-03-27T20:11:46.396Z,3.06
2023-03-27T20:14:13.298Z,3.06
2023-03-27T20:16:39.698Z,3.05
2023-03-27T20:19:06.812Z,3.03
2023-03-27T20:21:40.692Z,3.02
2023-03-27T20:24:10.127Z,3.00
2023-03-27T20:26:40.598Z,2.99
2023-03-27T20:29:13.230Z,2.97
2023-03-27T20:31:40.818Z,2.95
2023-03-27T20:34:08.150Z,2.95
2023-03-27T20:36:35.459Z,2.89
2023-03-27T20:39:04.699Z,2.86
2023-03-27T20:41:38.698Z,2.83
2023-03-27T20:44:15.285Z,2.82
2023-03-27T20:46:47.375Z,2.81
2023-03-27T20:49:37.654Z,2.77
2023-03-27T20:52:08.182Z,2.72
2023-03-27T20:54:34.750Z,2.66
2023-03-27T20:57:02.492Z,2.62
2023-03-27T20:59:30.540Z,2.55
2023-03-27T21:01:57.629Z,2.52
2023-03-27T21:04:25.986Z,2.48
2023-03-27T21:06:54.875Z,2.43
2023-03-27T21:09:25.912Z,2.36
2023-03-27T21:11:54.367Z,2.33
2023-03-27T21:14:21.052Z,2.29
2023-03-27T21:16:47.694Z,2.25
2023-03-27T21:19:14.201Z,2.24
2023-03-27T21:21:40.852Z,2.23
2023-03-27T21:24:07.338Z,2.19
2023-03-27T21:26:34.506Z,2.18
2023-03-27T21:29:01.215Z,2.12
2023-03-27T21:31:27.736Z,2.08
2023-03-27T21:33:54.238Z,1.99
2023-03-27T21:36:21.069Z,1.93
2023-03-27T21:38:47.703Z,1.90
2023-03-27T21:41:15.795Z,1.90
2023-03-27T21:43:42.246Z,1.86
2023-03-27T21:46:08.842Z,1.81
2023-03-27T21:48:35.330Z,1.77
2023-03-27T21:51:03.486Z,1.67
2023-03-27T21:53:30.172Z,1.65
2023-03-27T21:55:57.466Z,1.62
2023-03-27T21:58:25.007Z,1.54
2023-03-27T22:00:51.483Z,1.50
2023-03-27T22:03:18.476Z,1.46
2023-03-27T22:05:49.124Z,1.42
2023-03-27T22:08:21.538Z,1.38
2023-03-27T22:10:48.000Z,1.38
2023-03-27T22:13:14.369Z,1.37
2023-03-27T22:15:40.949Z,1.40
2023-03-27T22:18:07.437Z,1.36
2023-03-27T22:20:33.922Z,1.32
2023-03-27T22:23:00.501Z,1.31
2023-03-27T22:25:27.036Z,1.30
2023-03-27T22:27:53.384Z,1.31
2023-03-27T22:30:19.841Z,1.29
2023-03-27T22:32:46.304Z,1.28
2023-03-27T22:35:13.291Z,1.27
2023-03-27T22:37:40.491Z,1.27
2023-03-27T22:40:07.979Z,1.26
2023-03-27T22:42:34.681Z,1.22
2023-03-27T22:45:01.025Z,1.20
2023-03-27T22:47:27.798Z,1.14
2023-03-27T22:49:54.494Z,1.07
2023-03-27T22:52:21.028Z,1.02
2023-03-27T22:54:47.496Z,1.00
2023-03-27T22:57:13.956Z,0.98
2023-03-27T22:59:40.343Z,0.95
2023-03-27T23:02:07.098Z,0.96
2023-03-27T23:04:33.705Z,0.94
2023-03-27T23:07:01.502Z,0.95
2023-03-27T23:09:28.018Z,0.95
2023-03-27T23:11:54.440Z,0.91
2023-03-27T23:14:20.914Z,0.90
2023-03-27T23:16:47.436Z,0.91
2023-03-27T23:19:13.888Z,0.93
2023-03-27T23:21:40.294Z,0.90
2023-03-27T23:24:07.061Z,0.91
2023-03-27T23:26:33.585Z,0.87
2023-03-27T23:29:00.302Z,0.83
2023-03-27T23:31:26.810Z,0.77
2023-03-27T23:33:53.282Z,0.70
2023-03-27T23:36:22.887Z,0.66
2023-03-27T23:38:51.458Z,0.60
2023-03-27T23:41:17.986Z,0.57
2023-03-27T23:43:45.277Z,0.54
2023-03-27T23:46:12.261Z,0.54
2023-03-27T23:48:39.987Z,0.56
2023-03-27T23:51:07.490Z,0.51
2023-03-27T23:53:34.611Z,0.45
2023-03-27T23:56:01.324Z,0.41
2023-03-27T23:58:32.120Z,0.38
